Time;durP1;ratioP1;P1;durP2;ratioP2;P2;SDS_P1;SDS_P2;PMS_P1;PMS_P2;Temp;Humidity;BMP_temperature;BMP_pressure;BME280_temperature;BME280_humidity;BME280_pressure;Samples;Min_cycle;Max_cycle;Signal;HPM_P1;HPM_P2
2021/10/14 00:05:55;;;;;;;14.85;7.40;;;11.00;99.90;;;;;;6749214;88;20210;-73
2021/10/14 00:15:55;;;;;;;16.58;7.62;;;11.00;99.90;;;;;;6747271;88;20196;-73
2021/10/14 00:25:56;;;;;;;15.18;7.15;;;11.00;99.90;;;;;;6747117;88;20224;-73
2021/10/14 00:35:56;;;;;;;14.52;7.50;;;11.00;99.90;;;;;;6746874;88;20610;-73
2021/10/14 00:45:57;;;;;;;18.45;7.72;;;11.00;99.90;;;;;;6749175;77;20260;-77
2021/10/14 00:55:57;;;;;;;18.58;7.75;;;11.00;99.90;;;;;;6735930;88;20197;-76
2021/10/14 01:05:59;;;;;;;12.05;7.03;;;11.00;99.90;;;;;;6735816;88;20553;-77
2021/10/14 01:16:06;;;;;;;17.42;7.68;;;11.00;99.90;;;;;;6741216;88;20643;-77
2021/10/14 01:26:06;;;;;;;13.88;6.57;;;11.00;99.90;;;;;;6736264;88;20282;-78
2021/10/14 01:36:07;;;;;;;12.47;6.60;;;11.10;99.90;;;;;;6740024;88;20315;-77
2021/10/14 01:46:08;;;;;;;13.57;6.25;;;11.00;99.90;;;;;;6736614;88;20598;-77
2021/10/14 01:56:08;;;;;;;12.00;6.35;;;11.20;99.90;;;;;;6740185;88;20188;-77
2021/10/14 02:06:09;;;;;;;13.25;5.85;;;11.10;99.90;;;;;;6739168;88;20188;-77
2021/10/14 02:16:09;;;;;;;11.30;6.03;;;11.00;99.90;;;;;;6739397;88;20196;-77
2021/10/14 02:26:10;;;;;;;10.88;5.28;;;11.20;99.90;;;;;;6739501;88;20230;-77
2021/10/14 02:36:10;;;;;;;11.00;4.93;;;11.10;99.90;;;;;;6745171;88;20180;-79
2021/10/14 02:46:11;;;;;;;9.70;4.60;;;10.90;99.90;;;;;;6735770;88;20363;-76
2021/10/14 02:56:11;;;;;;;10.50;5.20;;;10.80;99.90;;;;;;6740227;88;20220;-77
2021/10/14 03:06:12;;;;;;;8.88;5.00;;;10.60;99.90;;;;;;6736153;88;20253;-77
2021/10/14 03:16:12;;;;;;;10.85;5.75;;;10.60;99.90;;;;;;6739276;88;20707;-76
2021/10/14 03:26:13;;;;;;;10.63;4.87;;;10.50;99.90;;;;;;6736844;88;20217;-76
2021/10/14 03:36:13;;;;;;;16.05;6.10;;;10.60;99.90;;;;;;6745433;88;20239;-79
2021/10/14 03:46:14;;;;;;;12.48;5.40;;;10.50;99.90;;;;;;6740354;88;20216;-77
2021/10/14 03:56:14;;;;;;;8.98;5.78;;;10.50;99.90;;;;;;6737783;88;20258;-76
2021/10/14 04:06:15;;;;;;;13.80;5.43;;;10.70;99.90;;;;;;6740846;88;20206;-77
2021/10/14 04:16:16;;;;;;;10.35;5.22;;;10.80;99.90;;;;;;6739407;88;20201;-78
2021/10/14 04:26:16;;;;;;;11.07;5.28;;;10.90;99.90;;;;;;6736393;88;20930;-77
2021/10/14 04:36:17;;;;;;;12.80;6.18;;;10.70;99.90;;;;;;6733618;88;20216;-79
2021/10/14 04:46:17;;;;;;;14.35;5.85;;;10.70;99.90;;;;;;6736770;88;20208;-78
2021/10/14 04:56:18;;;;;;;10.63;4.85;;;10.60;99.90;;;;;;6736378;88;20201;-79
2021/10/14 05:06:18;;;;;;;13.07;5.05;;;10.50;99.90;;;;;;6733069;88;20723;-76
2021/10/14 05:16:19;;;;;;;10.88;3.42;;;10.60;99.90;;;;;;6733020;88;20188;-76
2021/10/14 05:26:19;;;;;;;10.30;4.07;;;10.50;99.90;;;;;;6736361;88;20310;-76
2021/10/14 05:36:21;;;;;;;10.65;3.95;;;10.60;99.90;;;;;;6735452;88;20202;-77
2021/10/14 05:46:21;;;;;;;7.87;4.03;;;10.50;99.90;;;;;;6737847;88;20240;-78
2021/10/14 05:56:24;;;;;;;10.30;3.95;;;10.50;99.90;;;;;;6740891;88;20230;-78
2021/10/14 06:06:24;;;;;;;8.15;3.85;;;10.40;99.90;;;;;;6737899;88;20248;-78
2021/10/14 06:16:25;;;;;;;7.45;3.87;;;10.40;99.90;;;;;;6739050;88;20187;-76
2021/10/14 06:26:25;;;;;;;9.40;3.80;;;10.60;99.90;;;;;;6735951;88;20638;-79
2021/10/14 06:36:26;;;;;;;10.98;4.20;;;10.60;99.90;;;;;;6740886;88;20209;-79
2021/10/14 06:46:26;;;;;;;9.50;4.07;;;10.70;99.90;;;;;;6750169;88;20626;-78
2021/10/14 06:56:27;;;;;;;11.52;4.50;;;10.60;99.90;;;;;;6724542;88;20201;-80
2021/10/14 07:06:27;;;;;;;12.13;4.22;;;10.70;99.90;;;;;;6740876;88;20196;-79
2021/10/14 07:16:28;;;;;;;8.88;4.30;;;10.80;99.90;;;;;;6741819;88;20245;-77
2021/10/14 07:26:29;;;;;;;12.60;4.87;;;10.90;99.90;;;;;;6740193;88;20204;-77
2021/10/14 07:36:29;;;;;;;10.05;5.12;;;10.70;99.90;;;;;;6737676;88;20230;-77
2021/10/14 07:46:30;;;;;;;15.32;5.70;;;10.80;99.90;;;;;;6740095;88;20281;-78
2021/10/14 07:56:31;;;;;;;10.13;5.90;;;10.80;99.90;;;;;;6739797;88;20285;-77
2021/10/14 08:06:32;;;;;;;10.85;5.05;;;10.80;99.90;;;;;;6735180;88;20350;-79
2021/10/14 08:16:32;;;;;;;7.82;5.20;;;11.00;99.90;;;;;;6738586;88;20619;-79
2021/10/14 08:26:33;;;;;;;10.98;5.47;;;11.10;99.90;;;;;;6738697;88;20226;-78
2021/10/14 08:36:33;;;;;;;10.65;4.90;;;11.30;99.90;;;;;;6738897;88;20624;-79
2021/10/14 08:46:34;;;;;;;12.18;6.00;;;11.50;99.90;;;;;;6738868;88;20214;-79
2021/10/14 08:56:41;;;;;;;14.35;5.10;;;11.60;99.90;;;;;;6738514;88;20662;-79
2021/10/14 09:06:42;;;;;;;9.60;4.85;;;11.80;99.90;;;;;;6740782;88;20229;-78
2021/10/14 09:16:42;;;;;;;9.40;5.00;;;11.90;99.90;;;;;;6738968;88;20205;-79
2021/10/14 09:26:47;;;;;;;8.90;4.87;;;12.20;99.90;;;;;;6740602;88;20196;-80
2021/10/14 09:36:48;;;;;;;6.95;4.40;;;12.30;99.90;;;;;;6737769;88;20531;-79
2021/10/14 09:46:51;;;;;;;9.45;5.28;;;12.60;99.90;;;;;;6742206;88;20390;-79
2021/10/14 09:56:51;;;;;;;8.70;4.82;;;12.80;99.90;;;;;;6743731;88;20184;-79
2021/10/14 10:06:55;;;;;;;12.13;4.87;;;13.50;99.90;;;;;;6737129;88;20216;-79
2021/10/14 10:16:58;;;;;;;8.40;4.70;;;14.00;99.90;;;;;;6741233;88;21043;-79
2021/10/14 10:26:59;;;;;;;10.40;5.07;;;14.10;99.90;;;;;;6740807;88;20202;-77
2021/10/14 10:37:30;;;;;;;8.02;4.62;;;14.30;99.90;;;;;;6740742;88;20301;-80
2021/10/14 10:47:38;;;;;;;7.35;4.15;;;14.80;99.90;;;;;;6745566;88;20210;-80
2021/10/14 10:57:50;;;;;;;6.55;3.75;;;15.40;99.90;;;;;;6740693;88;20650;-77
2021/10/14 11:08:05;;;;;;;6.80;3.92;;;15.50;99.90;;;;;;6738394;88;20673;-77
2021/10/14 11:18:07;;;;;;;7.40;3.50;;;15.60;99.90;;;;;;6737620;88;20247;-80
2021/10/14 11:28:10;;;;;;;4.32;2.58;;;15.80;99.90;;;;;;6740581;88;20217;-80
2021/10/14 11:38:15;;;;;;;4.53;2.17;;;16.20;99.90;;;;;;6739058;88;20224;-79
2021/10/14 11:48:30;;;;;;;3.40;2.33;;;15.80;99.90;;;;;;6740525;88;20168;-77
2021/10/14 11:58:35;;;;;;;;;;;15.90;99.90;;;;;;6742834;88;20206;-76
2021/10/14 12:08:49;;;;;;;6.35;1.98;;;15.70;99.90;;;;;;6741939;88;20058;-78
2021/10/14 12:18:53;;;;;;;5.60;2.00;;;15.90;99.90;;;;;;6737744;88;20207;-77
2021/10/14 12:29:25;;;;;;;2.92;1.90;;;16.10;99.90;;;;;;6736251;88;20679;-77
2021/10/14 12:39:29;;;;;;;3.60;1.45;;;16.50;99.90;;;;;;6739373;88;20183;-76
2021/10/14 12:49:39;;;;;;;3.25;1.83;;;16.50;99.90;;;;;;6739567;88;20193;-79
2021/10/14 12:59:40;;;;;;;3.20;1.20;;;16.00;99.90;;;;;;6741937;88;20597;-77
2021/10/14 13:09:40;;;;;;;2.85;1.10;;;15.90;99.90;;;;;;6738153;88;20387;-79
2021/10/14 13:19:41;;;;;;;2.35;1.00;;;15.80;99.90;;;;;;6739359;88;20672;-77
2021/10/14 13:29:41;;;;;;;3.28;1.10;;;16.20;99.90;;;;;;6742530;88;20188;-77
2021/10/14 13:39:42;;;;;;;3.20;0.85;;;16.20;99.90;;;;;;6742915;88;20230;-77
2021/10/14 13:49:44;;;;;;;3.20;1.40;;;15.80;99.90;;;;;;6741686;88;20223;-77
2021/10/14 13:59:44;;;;;;;2.83;1.60;;;15.70;99.90;;;;;;6742533;88;21401;-79
2021/10/14 14:09:45;;;;;;;2.70;1.62;;;16.00;99.90;;;;;;6750457;88;20222;-78
2021/10/14 14:19:45;;;;;;;3.53;1.60;;;16.10;99.90;;;;;;6741599;88;20204;-77
2021/10/14 14:29:46;;;;;;;3.83;1.40;;;16.20;99.90;;;;;;6739031;88;20744;-78
2021/10/14 14:39:46;;;;;;;2.28;1.20;;;16.30;99.90;;;;;;6736850;88;20192;-79
2021/10/14 14:49:57;;;;;;;2.03;0.90;;;16.20;99.90;;;;;;6737913;88;20212;-79
2021/10/14 14:59:58;;;;;;;2.37;1.00;;;16.00;99.90;;;;;;6738440;88;20812;-78
2021/10/14 15:09:58;;;;;;;4.65;1.10;;;16.00;99.90;;;;;;6734448;88;20204;-78
2021/10/14 15:19:59;;;;;;;2.75;1.15;;;15.90;99.90;;;;;;6737518;88;20218;-79
2021/10/14 15:30:00;;;;;;;2.03;1.20;;;15.70;99.90;;;;;;6737889;88;20262;-78
2021/10/14 15:40:00;;;;;;;3.73;1.30;;;15.60;99.90;;;;;;6738144;88;20201;-78
2021/10/14 15:50:02;;;;;;;3.75;1.40;;;15.70;99.90;;;;;;6736762;88;20517;-79
2021/10/14 16:00:03;;;;;;;2.30;1.00;;;15.40;99.90;;;;;;6744079;88;20379;-79
2021/10/14 16:10:05;;;;;;;3.65;1.70;;;15.40;99.90;;;;;;6736481;88;20199;-77
2021/10/14 16:20:06;;;;;;;6.68;2.08;;;15.20;99.90;;;;;;6738116;88;20235;-78
2021/10/14 16:30:08;;;;;;;3.62;1.65;;;15.10;99.90;;;;;;6739019;88;20235;-79
2021/10/14 16:40:10;;;;;;;4.05;2.00;;;15.00;99.90;;;;;;6739138;88;20259;-79
2021/10/14 16:50:19;;;;;;;4.43;2.20;;;14.90;99.90;;;;;;6737109;88;20209;-78
2021/10/14 17:00:26;;;;;;;4.22;2.50;;;14.80;99.90;;;;;;6735240;88;20226;-78
2021/10/14 17:10:27;;;;;;;4.87;2.53;;;14.70;99.90;;;;;;6732415;88;20197;-79
2021/10/14 17:40:57;;;;;;;6.47;2.87;;;14.30;99.90;;;;;;6738429;88;20239;-80
2021/10/14 17:50:57;;;;;;;9.15;2.67;;;14.30;99.90;;;;;;6737474;88;20209;-78
2021/10/14 18:01:01;;;;;;;8.40;3.40;;;14.30;99.90;;;;;;6740908;88;20246;-79
2021/10/14 18:42:00;;;;;;;5.50;2.92;;;14.00;99.90;;;;;;6742424;88;20196;-78
2021/10/14 18:52:47;;;;;;;6.40;2.90;;;13.90;99.90;;;;;;6737844;77;20599;-78
2021/10/14 19:02:57;;;;;;;5.47;2.92;;;13.70;99.90;;;;;;6741171;88;20203;-77
2021/10/14 20:25:10;;;;;;;2.70;1.55;;;14.10;99.90;;;;;;6742446;88;20287;-77
2021/10/14 20:35:17;;;;;;;4.40;1.40;;;14.10;99.90;;;;;;6743594;88;20246;-77
2021/10/14 20:45:17;;;;;;;3.03;1.62;;;14.00;99.90;;;;;;6744294;88;20195;-77
2021/10/14 21:05:37;;;;;;;3.45;1.65;;;13.90;99.90;;;;;;6737366;88;20920;-78
2021/10/14 21:15:38;;;;;;;3.87;1.83;;;13.70;99.90;;;;;;6734743;88;20202;-78
2021/10/14 21:25:43;;;;;;;2.72;1.60;;;13.70;99.90;;;;;;6740209;88;20635;-77
2021/10/14 21:35:49;;;;;;;2.92;1.40;;;13.70;99.90;;;;;;6739458;88;20285;-78
2021/10/14 21:45:50;;;;;;;3.47;1.50;;;13.50;99.90;;;;;;6739333;88;20180;-78
2021/10/14 21:55:53;;;;;;;5.47;1.70;;;13.60;99.90;;;;;;6739473;88;20224;-78
2021/10/14 22:05:54;;;;;;;4.95;1.55;;;13.50;99.90;;;;;;6739912;88;20741;-78
2021/10/14 22:15:54;;;;;;;5.43;1.45;;;13.50;99.90;;;;;;6739922;88;20330;-78
2021/10/14 22:25:55;;;;;;;4.57;1.50;;;13.10;99.90;;;;;;6740581;88;20248;-78
2021/10/14 22:35:55;;;;;;;3.35;1.40;;;13.10;99.90;;;;;;6742049;88;20744;-78
2021/10/14 22:45:56;;;;;;;2.85;1.40;;;13.10;99.90;;;;;;6742413;88;20206;-78
2021/10/14 22:55:57;;;;;;;3.15;1.27;;;13.00;99.90;;;;;;6740429;88;20234;-78
2021/10/14 23:05:57;;;;;;;4.30;1.45;;;13.00;99.90;;;;;;6741980;88;20185;-77
2021/10/14 23:15:58;;;;;;;4.10;1.60;;;12.70;99.90;;;;;;6742658;88;20258;-78
2021/10/14 23:25:59;;;;;;;3.62;1.50;;;12.80;99.90;;;;;;6746037;88;20778;-78
2021/10/14 23:35:59;;;;;;;3.87;1.60;;;12.60;99.90;;;;;;6738507;88;20641;-77
2021/10/14 23:46:00;;;;;;;4.43;1.75;;;12.60;99.90;;;;;;6741382;88;20202;-78
2021/10/14 23:56:00;;;;;;;4.37;1.70;;;12.10;99.90;;;;;;6741006;88;20207;-78
